TimeCST,TemperatureF,Dew PointF,Humidity,Sea Level PressureIn,VisibilityMPH,Wind Direction,Wind SpeedMPH,Gust SpeedMPH,PrecipitationIn,Events,Conditions,WindDirDegrees,DateUTC
12:00 AM,44.6,44.6,100,29.69,10.0,East,18.4,-,N/A,,Overcast,100,2012-11-10 06:00:00
12:20 AM,46.4,46.4,100,29.68,10.0,East,17.3,-,N/A,,Overcast,90,2012-11-10 06:20:00
12:40 AM,46.4,46.4,100,29.67,10.0,East,15.0,-,N/A,,Overcast,90,2012-11-10 06:40:00
1:00 AM,46.4,46.4,100,29.66,10.0,East,18.4,-,N/A,,Overcast,100,2012-11-10 07:00:00
1:20 AM,46.4,46.4,100,29.64,10.0,ESE,17.3,-,N/A,,Overcast,110,2012-11-10 07:20:00
1:40 AM,46.4,46.4,100,29.64,10.0,ESE,15.0,-,N/A,,Overcast,110,2012-11-10 07:40:00
2:00 AM,46.4,46.4,100,29.64,10.0,East,12.7,-,N/A,,Overcast,100,2012-11-10 08:00:00
2:20 AM,46.4,46.4,100,29.63,10.0,East,13.8,17.3,N/A,,Overcast,100,2012-11-10 08:20:00
2:40 AM,46.4,46.4,100,29.62,10.0,East,15.0,-,N/A,,Overcast,100,2012-11-10 08:40:00
3:00 AM,46.4,46.4,100,29.62,10.0,ESE,13.8,-,N/A,,Overcast,110,2012-11-10 09:00:00
3:20 AM,46.4,46.4,100,29.60,10.0,ESE,11.5,-,N/A,,Overcast,110,2012-11-10 09:20:00
3:40 AM,46.4,46.4,100,29.59,10.0,ESE,13.8,-,N/A,,Overcast,110,2012-11-10 09:40:00
4:00 AM,46.4,46.4,100,29.58,10.0,ESE,12.7,-,N/A,,Overcast,110,2012-11-10 10:00:00
4:20 AM,46.4,46.4,100,29.57,10.0,ESE,12.7,18.4,N/A,,Overcast,120,2012-11-10 10:20:00
4:40 AM,48.2,48.2,100,29.56,10.0,ESE,12.7,-,N/A,,Overcast,120,2012-11-10 10:40:00
5:00 AM,48.2,48.2,100,29.56,10.0,ESE,10.4,-,N/A,,Overcast,120,2012-11-10 11:00:00
5:40 AM,48.2,48.2,100,29.55,10.0,ESE,8.1,-,N/A,,Overcast,120,2012-11-10 11:40:00
6:00 AM,48.2,48.2,100,29.54,10.0,ESE,8.1,-,N/A,,Overcast,110,2012-11-10 12:00:00
6:20 AM,48.2,48.2,100,29.53,10.0,ESE,9.2,-,N/A,,Overcast,110,2012-11-10 12:20:00
6:40 AM,48.2,48.2,100,29.52,10.0,ESE,11.5,-,N/A,,Overcast,110,2012-11-10 12:40:00
7:00 AM,48.2,48.2,100,29.52,10.0,ESE,9.2,-,N/A,,Overcast,120,2012-11-10 13:00:00
7:20 AM,50.0,50.0,100,29.52,10.0,SE,10.4,-,N/A,,Overcast,130,2012-11-10 13:20:00
7:40 AM,50.0,50.0,100,29.52,5.0,SE,10.4,-,N/A,,Overcast,130,2012-11-10 13:40:00
8:00 AM,50.0,50.0,100,29.52,4.0,SE,9.2,-,N/A,,Overcast,140,2012-11-10 14:00:00
8:20 AM,50.0,50.0,100,29.51,3.0,SE,9.2,-,N/A,,Overcast,140,2012-11-10 14:20:00
9:00 AM,50.0,50.0,100,29.49,1.2,SE,9.2,-,N/A,,Overcast,140,2012-11-10 15:00:00
9:20 AM,50.0,50.0,100,29.49,0.8,SSE,6.9,-,N/A,,Overcast,150,2012-11-10 15:20:00
9:40 AM,50.0,50.0,100,29.50,0.5,South,8.1,-,N/A,Fog,Fog,180,2012-11-10 15:40:00
10:00 AM,50.0,50.0,100,29.50,0.5,SSW,10.4,-,N/A,Fog,Fog,210,2012-11-10 16:00:00
10:20 AM,50.0,50.0,100,29.50,0.8,SW,11.5,-,N/A,,Overcast,220,2012-11-10 16:20:00
10:40 AM,50.0,50.0,100,29.50,1.5,SW,13.8,-,N/A,,Overcast,230,2012-11-10 16:40:00
11:00 AM,48.2,48.2,100,29.50,0.5,SW,12.7,-,N/A,Fog,Fog,220,2012-11-10 17:00:00
11:20 AM,48.2,48.2,100,29.49,0.5,SW,11.5,-,N/A,Fog,Fog,220,2012-11-10 17:20:00
11:40 AM,48.2,48.2,100,29.49,0.8,WSW,9.2,-,N/A,,Overcast,240,2012-11-10 17:40:00
12:00 PM,48.2,48.2,100,29.49,1.2,SW,11.5,-,N/A,,Overcast,230,2012-11-10 18:00:00
12:20 PM,48.2,48.2,100,29.50,2.0,WSW,9.2,-,N/A,,Overcast,240,2012-11-10 18:20:00
12:40 PM,48.2,48.2,100,29.48,10.0,SW,9.2,-,N/A,,Overcast,230,2012-11-10 18:40:00
1:00 PM,48.2,48.2,100,29.48,2.5,WSW,11.5,16.1,N/A,,Overcast,240,2012-11-10 19:00:00
1:20 PM,48.2,48.2,100,29.48,1.2,WSW,10.4,-,N/A,,Overcast,240,2012-11-10 19:20:00
1:40 PM,48.2,48.2,100,29.46,2.5,West,9.2,-,N/A,,Overcast,260,2012-11-10 19:40:00
2:00 PM,48.2,48.2,100,29.46,0.8,West,8.1,-,N/A,,Overcast,270,2012-11-10 20:00:00
2:20 PM,48.2,48.2,100,29.47,1.0,SW,8.1,-,N/A,,Overcast,230,2012-11-10 20:20:00
2:40 PM,46.4,46.4,100,29.50,3.0,SW,11.5,-,N/A,,Overcast,220,2012-11-10 20:40:00
3:00 PM,46.4,46.4,100,29.50,2.5,SW,10.4,-,N/A,,Overcast,220,2012-11-10 21:00:00
3:20 PM,46.4,46.4,100,29.51,1.5,SSW,12.7,-,N/A,,Overcast,210,2012-11-10 21:20:00
3:40 PM,46.4,46.4,100,29.52,1.5,SW,13.8,21.9,N/A,,Overcast,230,2012-11-10 21:40:00
4:00 PM,46.4,46.4,100,29.50,2.0,West,10.4,17.3,N/A,,Overcast,270,2012-11-10 22:00:00
4:20 PM,46.4,46.4,100,29.49,2.5,West,6.9,-,N/A,,Overcast,270,2012-11-10 22:20:00
4:40 PM,46.4,46.4,100,29.48,4.0,West,8.1,-,N/A,,Overcast,260,2012-11-10 22:40:00
5:00 PM,46.4,46.4,100,29.48,7.0,West,9.2,-,N/A,,Overcast,270,2012-11-10 23:00:00
5:20 PM,44.6,44.6,100,29.47,3.0,NW,9.2,-,N/A,,Overcast,320,2012-11-10 23:20:00
5:40 PM,44.6,44.6,100,29.46,3.0,NW,10.4,-,N/A,,Overcast,320,2012-11-10 23:40:00
6:00 PM,44.6,44.6,100,29.56,2.5,West,21.9,28.8,N/A,,Overcast,280,2012-11-11 00:00:00
6:20 PM,41.0,41.0,100,29.50,5.0,NW,5.8,21.9,0.33,Rain-Thunderstorm,Rain,320,2012-11-11 00:20:00
6:40 PM,41.0,41.0,100,29.53,10.0,West,8.1,-,0.37,Rain-Thunderstorm,Light Rain,280,2012-11-11 00:40:00
7:00 PM,41.0,41.0,100,29.53,10.0,WNW,16.1,-,0.38,Rain-Thunderstorm,Light Rain,290,2012-11-11 01:00:00
7:20 PM,41.0,41.0,100,29.52,10.0,WNW,17.3,21.9,N/A,,Overcast,300,2012-11-11 01:20:00
7:40 PM,41.0,41.0,100,29.53,5.0,WNW,13.8,-,N/A,,Overcast,300,2012-11-11 01:40:00
8:00 PM,39.2,39.2,100,29.55,10.0,WNW,20.7,26.5,N/A,,Overcast,300,2012-11-11 02:00:00
8:20 PM,37.4,37.4,100,29.55,5.0,NW,25.3,32.2,N/A,,Overcast,310,2012-11-11 02:20:00
8:40 PM,35.6,35.6,100,29.55,9.0,WNW,26.5,32.2,N/A,Rain,Light Rain,300,2012-11-11 02:40:00
9:00 PM,33.8,33.8,100,29.57,10.0,WNW,28.8,35.7,N/A,,Overcast,300,2012-11-11 03:00:00
9:20 PM,32.0,32.0,100,29.53,10.0,NW,24.2,32.2,N/A,,Overcast,320,2012-11-11 03:20:00
10:00 PM,32.0,32.0,100,29.58,10.0,NW,25.3,36.8,N/A,,Overcast,310,2012-11-11 04:00:00
10:20 PM,30.2,30.2,100,29.59,10.0,NW,23.0,32.2,N/A,,Overcast,310,2012-11-11 04:20:00
10:40 PM,28.4,28.4,100,29.64,10.0,NW,26.5,31.1,N/A,,Overcast,310,2012-11-11 04:40:00
11:00 PM,28.4,28.4,100,29.66,10.0,NW,25.3,35.7,N/A,Rain,Freezing Rain,310,2012-11-11 05:00:00
11:20 PM,26.6,26.6,100,29.68,10.0,NW,26.5,29.9,N/A,Rain,Freezing Rain,310,2012-11-11 05:20:00
11:40 PM,26.6,26.6,100,29.69,10.0,NW,23.0,32.2,N/A,,Overcast,310,2012-11-11 05:40:00